sensor_id;sensor_type;location;lat;lon;timestamp;temperature;humidity
420;DHT22;42600;54.408;13.016;2023-06-10T21:43:45;14.30;88.30
420;DHT22;42600;54.408;13.016;2023-06-10T21:46:11;14.30;90.10
420;DHT22;42600;54.408;13.016;2023-06-10T21:48:38;14.30;89.80
420;DHT22;42600;54.408;13.016;2023-06-10T21:51:04;14.30;89.60
420;DHT22;42600;54.408;13.016;2023-06-10T21:53:31;14.30;89.60
420;DHT22;42600;54.408;13.016;2023-06-10T21:55:58;14.30;90.00
420;DHT22;42600;54.408;13.016;2023-06-10T21:58:24;14.30;90.80
420;DHT22;42600;54.408;13.016;2023-06-10T22:00:52;14.30;91.60
420;DHT22;42600;54.408;13.016;2023-06-10T22:03:19;14.30;91.80
420;DHT22;42600;54.408;13.016;2023-06-10T22:05:46;14.30;91.60
420;DHT22;42600;54.408;13.016;2023-06-10T22:08:12;14.30;91.40
420;DHT22;42600;54.408;13.016;2023-06-10T22:10:40;14.30;92.10
420;DHT22;42600;54.408;13.016;2023-06-10T22:13:06;14.20;91.40
420;DHT22;42600;54.408;13.016;2023-06-10T22:15:33;14.20;91.70
420;DHT22;42600;54.408;13.016;2023-06-10T22:18:02;14.20;91.90
420;DHT22;42600;54.408;13.016;2023-06-10T22:20:29;14.30;92.70
420;DHT22;42600;54.408;13.016;2023-06-10T22:22:56;14.20;92.50
420;DHT22;42600;54.408;13.016;2023-06-10T22:25:22;14.20;92.70
420;DHT22;42600;54.408;13.016;2023-06-10T22:27:49;14.20;92.70
420;DHT22;42600;54.408;13.016;2023-06-10T22:30:16;14.20;92.60
420;DHT22;42600;54.408;13.016;2023-06-10T22:32:42;14.20;92.70
420;DHT22;42600;54.408;13.016;2023-06-10T22:35:11;14.20;92.70
420;DHT22;42600;54.408;13.016;2023-06-10T22:37:37;14.20;92.70
420;DHT22;42600;54.408;13.016;2023-06-10T22:40:05;14.20;92.70
420;DHT22;42600;54.408;13.016;2023-06-10T22:42:32;14.20;92.70
420;DHT22;42600;54.408;13.016;2023-06-10T22:44:59;14.20;92.70
420;DHT22;42600;54.408;13.016;2023-06-10T22:47:25;14.10;92.70
420;DHT22;42600;54.408;13.016;2023-06-10T22:49:52;14.10;92.70
420;DHT22;42600;54.408;13.016;2023-06-10T22:52:22;14.20;92.70
420;DHT22;42600;54.408;13.016;2023-06-10T22:54:49;14.10;92.70
420;DHT22;42600;54.408;13.016;2023-06-10T22:57:15;14.10;92.70
420;DHT22;42600;54.408;13.016;2023-06-10T22:59:42;14.10;92.70
420;DHT22;42600;54.408;13.016;2023-06-10T23:02:08;14.10;92.70
420;DHT22;42600;54.408;13.016;2023-06-10T23:04:35;14.10;92.70
420;DHT22;42600;54.408;13.016;2023-06-10T23:07:02;14.10;92.70
420;DHT22;42600;54.408;13.016;2023-06-10T23:09:30;14.20;92.70
420;DHT22;42600;54.408;13.016;2023-06-10T23:11:56;14.10;92.70
420;DHT22;42600;54.408;13.016;2023-06-10T23:14:23;14.10;92.70
420;DHT22;42600;54.408;13.016;2023-06-10T23:16:50;14.10;92.70
420;DHT22;42600;54.408;13.016;2023-06-10T23:19:17;14.10;92.70
420;DHT22;42600;54.408;13.016;2023-06-10T23:21:44;14.10;92.70
420;DHT22;42600;54.408;13.016;2023-06-10T23:24:14;14.10;92.70
420;DHT22;42600;54.408;13.016;2023-06-10T23:26:43;14.10;92.70
420;DHT22;42600;54.408;13.016;2023-06-10T23:29:10;14.10;92.70
420;DHT22;42600;54.408;13.016;2023-06-10T23:31:36;14.10;92.70
420;DHT22;42600;54.408;13.016;2023-06-10T23:34:03;14.10;92.70
420;DHT22;42600;54.408;13.016;2023-06-10T23:36:30;14.10;92.70
420;DHT22;42600;54.408;13.016;2023-06-10T23:38:58;14.10;92.70
420;DHT22;42600;54.408;13.016;2023-06-10T23:41:25;14.10;92.70
420;DHT22;42600;54.408;13.016;2023-06-10T23:43:53;14.10;92.70
420;DHT22;42600;54.408;13.016;2023-06-10T23:46:19;14.10;92.70
420;DHT22;42600;54.408;13.016;2023-06-10T23:48:46;14.10;92.70
420;DHT22;42600;54.408;13.016;2023-06-10T23:51:13;14.10;92.70
420;DHT22;42600;54.408;13.016;2023-06-10T23:53:39;14.10;92.70
420;DHT22;42600;54.408;13.016;2023-06-10T23:56:06;14.10;92.70
420;DHT22;42600;54.408;13.016;2023-06-10T23:58:33;14.10;92.70
